Mitilini, Greece
Current Conditions -  °F | °C
As of 9:50 PM on Friday 24 Oct 2014 (Local Time) from LGMT Reporting Station
Overcast Overcast  
Wind Chill: 64°   Ceiling: 2500
Heat Index: 64°   Visibility: 6mi
Dew Point: 59°   Wind: 9mph
Humidity: 83%   Direction: 100°E
Pressure: 29.77"   Gusts: NA
Location:  39.11°N, 26.55°E
Report Text: LGMT 241850Z 10008KT 050V120 9999 FEW020 BKN025 OVC080 18/15 Q1008
Loading
Personal Weather Stations






























Interactive Weather Map
Tropical Storm Tracking
New forecast layout! Learn more

10-Day Weather Forecast

Advertisements
Track Severe Weather on mobile